Time;durP1;ratioP1;P1;durP2;ratioP2;P2;SDS_P1;SDS_P2;PMS_P1;PMS_P2;Temp;Humidity;BMP_temperature;BMP_pressure;BME280_temperature;BME280_humidity;BME280_pressure;Samples;Min_cycle;Max_cycle;Signal;HPM_P1;HPM_P2
2022/11/08 00:01:40;;;;;;;13.68;4.22;;;;;;;10.20;100.00;100822.44;6271423;22;20145;-80
2022/11/08 00:04:11;;;;;;;8.50;3.90;;;;;;;10.23;100.00;100815.13;6270190;22;20007;-80
2022/11/08 00:14:50;;;;;;;10.68;4.03;;;;;;;10.04;100.00;100829.44;6270650;22;20336;-81
2022/11/08 00:17:17;;;;;;;10.95;4.28;;;;;;;9.95;100.00;100818.31;6269779;22;20008;-81
2022/11/08 00:19:43;;;;;;;10.55;4.55;;;;;;;9.87;100.00;100814.31;6271575;22;20111;-80
2022/11/08 00:22:10;;;;;;;7.55;4.00;;;;;;;9.80;100.00;100811.06;6269300;22;20008;-79
2022/11/08 00:24:36;;;;;;;8.57;3.70;;;;;;;9.71;100.00;100816.81;6270389;22;20087;-79
2022/11/08 00:27:07;;;;;;;9.85;4.10;;;;;;;9.69;100.00;100821.34;6269904;22;20031;-79
2022/11/08 00:29:37;;;;;;;7.47;3.78;;;;;;;9.63;100.00;100816.31;6271308;22;20015;-79
2022/11/08 00:32:04;;;;;;;9.50;3.83;;;;;;;9.54;100.00;100817.63;6270968;22;20003;-80
2022/11/08 00:34:31;;;;;;;8.70;3.28;;;;;;;9.45;100.00;100808.28;6270876;22;20440;-80
2022/11/08 00:36:57;;;;;;;6.63;3.70;;;;;;;9.42;100.00;100808.44;6271625;22;20007;-80
2022/11/08 00:39:22;;;;;;;11.25;3.80;;;;;;;9.37;100.00;100801.63;6271042;22;20014;-79
2022/11/08 00:41:47;;;;;;;7.38;3.65;;;;;;;9.33;100.00;100803.53;6271868;22;20015;-80
2022/11/08 00:44:12;;;;;;;9.30;3.63;;;;;;;9.34;100.00;100791.97;6271646;22;20322;-80
2022/11/08 00:46:38;;;;;;;9.13;4.28;;;;;;;9.30;100.00;100798.38;6268635;22;20385;-80
2022/11/08 00:49:06;;;;;;;10.48;3.92;;;;;;;9.30;100.00;100801.03;6270334;22;20007;-80
2022/11/08 00:51:32;;;;;;;7.43;4.05;;;;;;;9.32;100.00;100798.28;6270009;22;20060;-80
2022/11/08 00:53:57;;;;;;;9.25;4.25;;;;;;;9.28;100.00;100797.59;6268919;22;20023;-81
2022/11/08 00:56:23;;;;;;;11.82;4.50;;;;;;;9.26;100.00;100783.50;6267738;22;20015;-79
2022/11/08 00:58:48;;;;;;;9.40;4.40;;;;;;;9.26;100.00;100791.47;6269824;22;20023;-80
2022/11/08 01:01:17;;;;;;;10.90;4.22;;;;;;;9.26;100.00;100791.47;6271680;22;20035;-79
2022/11/08 01:03:43;;;;;;;9.48;3.97;;;;;;;9.22;100.00;100785.44;6271850;22;20095;-78
2022/11/08 01:06:10;;;;;;;10.60;4.50;;;;;;;9.26;100.00;100787.97;6269947;22;20042;-79
2022/11/08 01:08:36;;;;;;;9.13;4.00;;;;;;;9.30;100.00;100781.56;6268862;22;20332;-81
2022/11/08 01:11:06;;;;;;;7.82;4.05;;;;;;;9.30;100.00;100793.06;6271188;22;20008;-81
2022/11/08 01:13:32;;;;;;;10.55;4.63;;;;;;;9.30;100.00;100789.53;6271109;22;19999;-79
2022/11/08 01:15:57;;;;;;;9.23;4.20;;;;;;;9.30;100.00;100792.19;6269359;22;20010;-80
2022/11/08 01:18:23;;;;;;;8.90;4.10;;;;;;;9.28;100.00;100783.41;6270522;22;20809;-80
2022/11/08 01:20:48;;;;;;;10.48;4.30;;;;;;;9.31;100.00;100784.16;6270666;22;20118;-78
2022/11/08 01:23:15;;;;;;;10.23;4.13;;;;;;;9.32;100.00;100783.25;6269821;22;19999;-80
2022/11/08 01:25:43;;;;;;;8.23;3.42;;;;;;;9.32;100.00;100783.25;6270220;22;20065;-80
2022/11/08 01:28:10;;;;;;;7.03;3.70;;;;;;;9.37;100.00;100775.91;6270187;22;20033;-81
2022/11/08 01:30:37;;;;;;;10.50;4.03;;;;;;;9.38;100.00;100779.41;6270916;22;20433;-81
2022/11/08 01:33:03;;;;;;;8.57;3.83;;;;;;;9.39;100.00;100773.16;6270257;22;20079;-81
2022/11/08 01:35:30;;;;;;;8.10;3.80;;;;;;;9.35;100.00;100768.94;6269478;22;20337;-80
2022/11/08 01:37:55;;;;;;;5.72;3.58;;;;;;;9.40;100.00;100775.75;6269660;22;20490;-80
2022/11/08 01:40:20;;;;;;;8.10;3.95;;;;;;;9.45;100.00;100763.13;6269953;22;20042;-79
2022/11/08 01:42:46;;;;;;;10.23;3.85;;;;;;;9.42;100.00;100755.28;6270350;22;20003;-79
2022/11/08 01:45:11;;;;;;;6.68;3.60;;;;;;;9.42;100.00;100749.97;6269175;22;19999;-80
2022/11/08 01:47:37;;;;;;;9.77;3.47;;;;;;;9.38;100.00;100750.19;6270484;22;20003;-80
2022/11/08 01:50:13;;;;;;;6.13;3.33;;;;;;;9.36;100.00;100741.44;6269935;22;20007;-80
2022/11/08 01:52:43;;;;;;;9.15;3.88;;;;;;;9.33;100.00;100739.81;6269689;22;20003;-80
2022/11/08 01:55:24;;;;;;;7.57;3.50;;;;;;;9.31;100.00;100740.78;6268759;22;20655;-78
2022/11/08 01:58:08;;;;;;;7.68;3.45;;;;;;;9.23;100.00;100728.72;6270143;22;20337;-79
2022/11/08 02:00:36;;;;;;;;;;;;;;;9.24;100.00;100734.94;6270757;22;20057;-80
2022/11/08 02:03:03;;;;;;;6.85;3.30;;;;;;;9.28;100.00;100725.88;6269856;22;19910;-80
2022/11/08 02:05:30;;;;;;;9.65;3.65;;;;;;;9.27;100.00;100723.28;6269303;22;20014;-80
2022/11/08 02:08:15;;;;;;;8.93;3.63;;;;;;;9.23;100.00;100722.56;6269366;22;20026;-78
2022/11/08 02:10:41;;;;;;;;;;;;;;;9.16;100.00;100722.00;6268204;22;20329;-79
2022/11/08 02:13:14;;;;;;;7.13;3.40;;;;;;;9.19;100.00;100713.00;6268335;22;19938;-79
2022/11/08 02:15:39;;;;;;;9.63;3.63;;;;;;;9.25;100.00;100709.22;6268252;22;20015;-78
2022/11/08 02:18:05;;;;;;;7.43;3.63;;;;;;;9.27;100.00;100710.84;6269210;22;20091;-79
2022/11/08 02:20:32;;;;;;;11.02;3.88;;;;;;;9.27;100.00;100702.88;6272423;22;20004;-80
2022/11/08 02:23:08;;;;;;;8.90;3.60;;;;;;;9.27;100.00;100699.38;6281894;22;20030;-79
2022/11/08 02:25:33;;;;;;;6.85;3.20;;;;;;;9.21;100.00;100697.88;6276477;22;20000;-79
2022/11/08 02:27:58;;;;;;;8.60;3.33;;;;;;;9.20;100.00;100690.84;6275188;22;20535;-79
2022/11/08 02:30:30;;;;;;;7.78;3.40;;;;;;;9.15;100.00;100693.69;6273601;22;20055;-78
2022/11/08 02:32:55;;;;;;;6.82;3.65;;;;;;;9.14;100.00;100686.69;6272203;22;20030;-79
2022/11/08 02:35:21;;;;;;;8.63;4.03;;;;;;;9.09;100.00;100678.06;6269830;22;19999;-78
2022/11/08 02:37:47;;;;;;;8.60;3.85;;;;;;;9.08;100.00;100673.72;6267592;22;20012;-80
2022/11/08 02:40:12;;;;;;;9.43;4.10;;;;;;;9.00;100.00;100667.03;6271024;22;20027;-81
2022/11/08 02:42:37;;;;;;;11.50;4.72;;;;;;;8.99;100.00;100668.84;6271314;22;20020;-80
2022/11/08 02:45:05;;;;;;;10.82;4.75;;;;;;;8.97;100.00;100652.97;6269767;22;20003;-81
2022/11/08 02:47:30;;;;;;;16.17;5.38;;;;;;;9.02;100.00;100659.84;6270956;22;20405;-81
2022/11/08 02:49:56;;;;;;;10.98;4.75;;;;;;;8.97;100.00;100663.59;6269221;22;20010;-80
2022/11/08 02:52:21;;;;;;;10.35;4.70;;;;;;;8.94;100.00;100663.72;6270529;22;20034;-79
2022/11/08 02:54:46;;;;;;;10.10;4.57;;;;;;;8.92;100.00;100662.94;6269410;22;20334;-80
2022/11/08 02:57:11;;;;;;;11.02;4.90;;;;;;;8.91;100.00;100647.97;6270109;22;20329;-80
2022/11/08 02:59:37;;;;;;;12.23;4.68;;;;;;;8.86;100.00;100652.63;6269216;22;20003;-80
2022/11/08 03:02:02;;;;;;;12.02;4.45;;;;;;;8.86;100.00;100639.34;6270319;22;20643;-80
2022/11/08 03:04:27;;;;;;;9.95;4.63;;;;;;;8.89;100.00;100639.19;6267942;22;20438;-79
2022/11/08 03:06:53;;;;;;;7.03;4.32;;;;;;;8.83;100.00;100634.19;6269838;22;20030;-79
2022/11/08 03:09:18;;;;;;;9.02;5.15;;;;;;;8.83;100.00;100623.56;6269737;22;20003;-80
2022/11/08 03:11:43;;;;;;;11.57;5.13;;;;;;;8.86;100.00;100618.13;6271645;22;20043;-80
2022/11/08 03:14:08;;;;;;;12.90;5.15;;;;;;;8.88;100.00;100612.72;6269322;22;20464;-80
2022/11/08 03:16:34;;;;;;;10.90;5.13;;;;;;;8.88;100.00;100600.31;6269752;22;20007;-79
2022/11/08 03:18:59;;;;;;;12.45;4.88;;;;;;;8.92;100.00;100606.34;6269670;22;20318;-80
2022/11/08 03:21:24;;;;;;;11.02;4.70;;;;;;;8.91;100.00;100605.50;6268041;22;19999;-80
2022/11/08 03:23:50;;;;;;;8.75;4.10;;;;;;;8.91;100.00;100594.88;6272419;22;20510;-80
2022/11/08 03:26:15;;;;;;;9.02;3.92;;;;;;;8.90;100.00;100595.81;6271280;22;20008;-80
2022/11/08 03:28:40;;;;;;;9.77;3.72;;;;;;;8.85;100.00;100597.81;6271801;22;20445;-80
2022/11/08 03:31:05;;;;;;;7.60;3.58;;;;;;;8.83;100.00;100598.81;6270290;22;20064;-80
2022/11/08 03:33:31;;;;;;;11.13;4.25;;;;;;;8.83;100.00;100607.66;6269441;22;20479;-79
2022/11/08 03:35:56;;;;;;;7.85;3.95;;;;;;;8.79;100.00;100603.41;6269845;22;20003;-79
2022/11/08 03:38:21;;;;;;;7.20;3.60;;;;;;;8.73;100.00;100590.41;6270826;22;20006;-80
2022/11/08 03:40:47;;;;;;;8.50;3.72;;;;;;;8.70;100.00;100588.78;6270594;22;20039;-80
2022/11/08 03:43:13;;;;;;;7.82;3.65;;;;;;;8.66;100.00;100573.09;6269622;22;20048;-79
2022/11/08 03:45:38;;;;;;;8.85;3.95;;;;;;;8.67;100.00;100580.97;6268266;22;20090;-80
2022/11/08 03:48:03;;;;;;;7.97;4.32;;;;;;;8.64;100.00;100570.50;6271237;22;19999;-80
2022/11/08 03:50:29;;;;;;;8.57;4.22;;;;;;;8.63;100.00;100566.13;6271646;22;20568;-79
2022/11/08 03:52:55;;;;;;;6.78;3.97;;;;;;;8.62;100.00;100560.91;6269712;22;20422;-79
2022/11/08 03:55:24;;;;;;;9.43;4.00;;;;;;;8.60;100.00;100553.00;6272250;22;20092;-80
2022/11/08 03:57:50;;;;;;;7.30;4.15;;;;;;;8.63;100.00;100552.84;6271898;22;20004;-80
2022/11/08 04:00:17;;;;;;;7.25;3.80;;;;;;;8.61;100.00;100556.50;6272278;22;20015;-80
2022/11/08 04:02:43;;;;;;;8.13;3.90;;;;;;;8.62;100.00;100553.81;6270873;22;20011;-80
2022/11/08 04:05:10;;;;;;;9.70;4.15;;;;;;;8.64;100.00;100543.09;6268851;22;20027;-80
2022/11/08 04:07:36;;;;;;;8.82;4.03;;;;;;;8.61;100.00;100532.63;6270667;22;20314;-79
2022/11/08 04:10:03;;;;;;;11.23;4.30;;;;;;;8.61;100.00;100537.94;6268592;22;20000;-79
2022/11/08 04:15:14;;;;;;;9.82;4.40;;;;;;;8.55;100.00;100524.97;6269355;22;20015;-80
2022/11/08 04:23:13;;;;;;;;;;;;;;;8.52;100.00;100515.34;6271017;22;20066;-79
2022/11/08 04:25:38;;;;;;;6.63;3.30;;;;;;;8.54;100.00;100507.34;6270126;22;19931;-80
2022/11/08 04:28:04;;;;;;;6.53;3.92;;;;;;;8.54;100.00;100504.69;6269111;22;20012;-80
2022/11/08 04:30:29;;;;;;;8.32;4.00;;;;;;;8.48;100.00;100492.56;6272260;22;20158;-80
2022/11/08 04:32:55;;;;;;;8.35;3.13;;;;;;;8.51;100.00;100496.88;6269952;22;20010;-80
2022/11/08 04:35:20;;;;;;;7.10;3.38;;;;;;;8.54;100.00;100494.94;6271594;22;20004;-78
2022/11/08 04:37:45;;;;;;;8.23;3.50;;;;;;;8.50;100.00;100481.91;6270949;22;20550;-79
2022/11/08 04:40:11;;;;;;;7.63;3.30;;;;;;;8.53;100.00;100485.28;6270113;22;20083;-80
2022/11/08 04:42:36;;;;;;;5.28;3.55;;;;;;;8.55;100.00;100493.16;6272757;22;20353;-80
2022/11/08 04:45:02;;;;;;;7.95;3.30;;;;;;;8.55;100.00;100485.19;6270294;22;20000;-80
2022/11/08 04:47:28;;;;;;;7.38;3.33;;;;;;;8.50;100.00;100488.06;6271911;22;20019;-79
2022/11/08 04:49:53;;;;;;;9.02;3.80;;;;;;;8.50;100.00;100473.94;6270655;22;20421;-79
2022/11/08 04:52:19;;;;;;;4.47;3.38;;;;;;;8.51;100.00;100481.81;6270750;22;20015;-79
2022/11/08 04:54:48;;;;;;;6.38;3.67;;;;;;;8.50;100.00;100474.81;6269783;22;20003;-79
2022/11/08 04:57:15;;;;;;;7.15;3.70;;;;;;;8.50;100.00;100461.53;6270040;22;20007;-79
2022/11/08 04:59:40;;;;;;;5.18;3.30;;;;;;;8.53;100.00;100463.16;6272841;22;20386;-80
2022/11/08 05:02:05;;;;;;;6.90;3.38;;;;;;;8.55;100.00;100448.91;6270807;22;19994;-78
2022/11/08 05:04:31;;;;;;;5.35;3.33;;;;;;;8.50;100.00;100450.06;6270428;22;20066;-80
2022/11/08 05:06:56;;;;;;;6.15;3.20;;;;;;;8.50;100.00;100450.06;6271668;22;20007;-79
2022/11/08 05:09:21;;;;;;;6.85;3.42;;;;;;;8.46;100.00;100444.06;6272204;22;20008;-80
2022/11/08 05:11:47;;;;;;;5.88;3.30;;;;;;;8.52;100.00;100446.38;6271850;22;20014;-80
2022/11/08 05:14:12;;;;;;;10.48;3.28;;;;;;;8.52;100.00;100432.28;6269669;22;20102;-79
2022/11/08 05:16:37;;;;;;;6.90;3.05;;;;;;;8.53;100.00;100439.28;6272983;22;20014;-79
2022/11/08 05:19:02;;;;;;;7.72;3.88;;;;;;;8.52;100.00;100432.28;6271933;22;20039;-80
2022/11/08 05:24:14;;;;;;;8.00;3.25;;;;;;;8.48;100.00;100443.06;6269393;22;20027;-79
2022/11/08 05:26:42;;;;;;;7.07;3.33;;;;;;;8.52;100.00;100433.13;6270332;22;20007;-79
2022/11/08 05:29:08;;;;;;;5.07;3.00;;;;;;;8.47;100.00;100440.47;6271028;22;20007;-80
2022/11/08 05:31:33;;;;;;;7.72;3.58;;;;;;;8.45;100.00;100435.25;6272283;22;20007;-80
2022/11/08 05:33:59;;;;;;;6.43;2.95;;;;;;;8.40;100.00;100420.47;6270827;22;20325;-79
2022/11/08 05:36:25;;;;;;;5.63;2.80;;;;;;;8.38;100.00;100428.50;6270939;22;20090;-80
2022/11/08 05:38:50;;;;;;;4.40;3.00;;;;;;;8.39;100.00;100419.59;6271928;22;20007;-78
2022/11/08 05:41:18;;;;;;;5.82;3.30;;;;;;;8.32;100.00;100418.19;6269485;22;20082;-79
2022/11/08 05:43:46;;;;;;;5.30;2.90;;;;;;;8.37;100.00;100417.97;6269006;22;20044;-80
2022/11/08 05:46:11;;;;;;;9.25;3.13;;;;;;;8.29;100.00;100426.28;6268785;22;20334;-80
2022/11/08 05:48:36;;;;;;;6.90;2.92;;;;;;;8.28;100.00;100427.22;6268907;22;20015;-79
2022/11/08 05:51:02;;;;;;;5.38;2.97;;;;;;;8.26;100.00;100413.16;6270889;22;20508;-79
2022/11/08 05:53:28;;;;;;;6.40;2.85;;;;;;;8.29;100.00;100428.06;6269339;22;20536;-80
2022/11/08 05:56:01;;;;;;;6.07;3.13;;;;;;;8.27;100.00;100425.47;6269120;22;20000;-79
2022/11/08 05:58:28;;;;;;;5.50;2.90;;;;;;;8.24;100.00;100423.00;6269339;22;20000;-79
2022/11/08 06:01:00;;;;;;;7.45;3.17;;;;;;;8.25;100.00;100424.69;6270099;22;20003;-80
2022/11/08 06:03:25;;;;;;;4.88;3.17;;;;;;;8.20;100.00;100405.50;6268597;22;20022;-79
2022/11/08 06:05:50;;;;;;;5.82;3.25;;;;;;;8.22;100.00;100415.09;6269846;22;20000;-80
2022/11/08 06:08:16;;;;;;;6.63;3.17;;;;;;;8.14;100.00;100408.44;6269969;22;20022;-80
2022/11/08 06:10:41;;;;;;;6.65;3.55;;;;;;;8.13;100.00;100406.72;6269533;22;20003;-80
2022/11/08 06:13:06;;;;;;;4.03;2.85;;;;;;;8.14;100.00;100405.78;6269247;22;20004;-79
2022/11/08 06:15:32;;;;;;;10.13;3.28;;;;;;;8.14;100.00;100411.09;6271416;22;20004;-79
2022/11/08 06:18:01;;;;;;;5.60;3.22;;;;;;;8.07;100.00;100412.31;6271369;22;20012;-79
2022/11/08 06:20:26;;;;;;;5.32;3.40;;;;;;;8.11;100.00;100417.41;6271054;22;19999;-79
2022/11/08 06:22:54;;;;;;;5.53;3.13;;;;;;;8.12;100.00;100423.56;6269769;22;20341;-79
2022/11/08 06:25:19;;;;;;;4.88;3.00;;;;;;;8.07;100.00;100409.66;6270145;22;19999;-79
2022/11/08 06:27:44;;;;;;;7.20;3.20;;;;;;;8.06;100.00;100402.63;6270583;22;20003;-80
2022/11/08 06:30:10;;;;;;;5.72;3.30;;;;;;;8.11;100.00;100416.53;6269122;22;20007;-79
2022/11/08 06:32:35;;;;;;;5.15;3.30;;;;;;;8.14;100.00;100413.75;6269854;22;20113;-78
2022/11/08 06:35:00;;;;;;;6.43;3.33;;;;;;;8.13;100.00;100410.22;6269021;22;20015;-80
2022/11/08 06:37:26;;;;;;;4.35;3.33;;;;;;;8.15;100.00;100420.75;6270743;22;20026;-80
2022/11/08 06:39:51;;;;;;;8.15;4.22;;;;;;;8.12;100.00;100416.47;6272519;22;20095;-80
2022/11/08 06:42:16;;;;;;;6.38;3.58;;;;;;;8.11;100.00;100424.47;6271968;22;20004;-79
2022/11/08 06:44:41;;;;;;;4.47;3.22;;;;;;;8.09;100.00;100421.06;6270280;22;19995;-80
2022/11/08 06:47:07;;;;;;;6.65;3.45;;;;;;;8.10;100.00;100417.47;6270885;22;20441;-80
2022/11/08 06:49:32;;;;;;;5.25;3.53;;;;;;;8.10;100.00;100415.66;6271246;22;20070;-78
2022/11/08 06:51:57;;;;;;;5.20;3.30;;;;;;;8.11;100.00;100414.75;6270417;22;20004;-80
2022/11/08 06:54:23;;;;;;;6.78;3.80;;;;;;;8.08;100.00;100417.56;6269890;22;20083;-80
2022/11/08 06:56:48;;;;;;;5.78;3.42;;;;;;;8.02;100.00;100398.41;6271294;22;20004;-78
2022/11/08 06:59:13;;;;;;;6.20;3.90;;;;;;;8.08;100.00;100416.69;6273075;22;20330;-80
2022/11/08 07:01:39;;;;;;;6.78;3.88;;;;;;;8.08;100.00;100424.66;6273743;22;20086;-79
2022/11/08 07:04:04;;;;;;;5.88;3.40;;;;;;;8.09;100.00;100421.91;6272056;22;20012;-79
2022/11/08 07:06:30;;;;;;;8.45;3.67;;;;;;;8.06;100.00;100430.00;6272166;22;20083;-79
2022/11/08 07:08:55;;;;;;;9.30;3.50;;;;;;;8.07;100.00;100428.19;6269680;22;20011;-80
2022/11/08 07:11:20;;;;;;;6.88;3.80;;;;;;;8.10;100.00;100428.91;6271400;22;20069;-79
2022/11/08 07:13:46;;;;;;;7.85;4.10;;;;;;;8.16;100.00;100427.78;6270999;22;20012;-79
2022/11/08 07:16:12;;;;;;;7.75;3.95;;;;;;;8.17;100.00;100432.16;6271464;22;20083;-77
2022/11/08 07:18:37;;;;;;;9.63;4.20;;;;;;;8.20;100.00;100432.88;6271786;22;20007;-79
2022/11/08 07:21:03;;;;;;;6.10;4.20;;;;;;;8.23;100.00;100426.56;6267478;22;20286;-80
2022/11/08 07:23:29;;;;;;;5.72;3.50;;;;;;;8.29;100.00;100436.88;6268026;22;20154;-80
2022/11/08 07:25:54;;;;;;;5.65;3.80;;;;;;;8.31;100.00;100432.34;6270543;22;19999;-80
2022/11/08 07:28:19;;;;;;;7.07;4.00;;;;;;;8.33;100.00;100429.63;6272042;22;20073;-78
2022/11/08 07:30:46;;;;;;;7.63;4.15;;;;;;;8.40;100.00;100431.06;6272087;22;20011;-80
2022/11/08 07:33:14;;;;;;;6.18;3.67;;;;;;;8.42;100.00;100430.06;6271504;22;20015;-80
2022/11/08 07:35:40;;;;;;;5.57;3.55;;;;;;;8.48;100.00;100431.56;6272327;22;20008;-80
2022/11/08 07:38:05;;;;;;;6.95;3.63;;;;;;;8.54;100.00;100430.41;6269806;22;20428;-80
2022/11/08 07:40:32;;;;;;;7.68;3.67;;;;;;;8.59;100.00;100425.75;6272185;22;20004;-79
2022/11/08 07:42:58;;;;;;;6.20;3.90;;;;;;;8.62;100.00;100434.41;6270109;22;20337;-78
2022/11/08 07:45:24;;;;;;;7.57;4.68;;;;;;;8.65;100.00;100439.56;6270679;22;20070;-78
2022/11/08 07:47:59;;;;;;;5.60;3.63;;;;;;;8.69;100.00;100441.16;6268705;22;20098;-79
2022/11/08 07:50:25;;;;;;;7.72;3.88;;;;;;;8.75;100.00;100434.66;6270320;22;20049;-80
2022/11/08 07:52:50;;;;;;;6.15;4.03;;;;;;;8.83;99.43;100431.63;6270169;22;20008;-81
2022/11/08 07:55:15;;;;;;;7.22;3.42;;;;;;;8.88;98.94;100419.84;6268942;22;20322;-80
2022/11/08 07:57:41;;;;;;;7.10;3.67;;;;;;;8.92;98.61;100421.41;6272847;22;19999;-79
2022/11/08 08:00:07;;;;;;;4.43;2.97;;;;;;;9.01;97.32;100408.59;6271417;22;20011;-79
2022/11/08 08:02:32;;;;;;;4.80;3.40;;;;;;;9.14;96.93;100415.84;6271902;22;20064;-81
2022/11/08 08:04:57;;;;;;;5.32;4.10;;;;;;;9.22;96.04;100412.78;6272394;22;20006;-81
2022/11/08 08:07:23;;;;;;;7.10;3.40;;;;;;;9.35;95.04;100411.22;6272331;22;20003;-82
2022/11/08 08:09:48;;;;;;;6.28;3.28;;;;;;;9.43;94.19;100416.13;6271248;22;20500;-81
2022/11/08 08:12:13;;;;;;;5.70;2.95;;;;;;;9.48;94.12;100411.41;6272007;22;20011;-82
2022/11/08 08:14:38;;;;;;;5.80;3.17;;;;;;;9.60;93.06;100421.41;6270189;22;20035;-80
2022/11/08 08:17:04;;;;;;;4.18;2.50;;;;;;;9.70;92.84;100416.47;6269282;22;20114;-80
2022/11/08 08:19:29;;;;;;;4.15;2.90;;;;;;;9.78;92.20;100424.88;6269844;22;20003;-81
2022/11/08 08:21:54;;;;;;;4.97;2.90;;;;;;;9.87;90.76;100408.44;6269096;22;20004;-82
2022/11/08 08:24:19;;;;;;;9.20;3.08;;;;;;;9.94;90.66;100409.78;6269498;22;20006;-83
2022/11/08 08:26:45;;;;;;;3.65;2.40;;;;;;;10.05;89.35;100417.19;6270802;22;20376;-82
2022/11/08 08:29:10;;;;;;;4.72;2.80;;;;;;;10.18;88.32;100426.19;6270593;22;20039;-81
2022/11/08 08:31:35;;;;;;;4.38;2.45;;;;;;;10.28;87.67;100425.69;6270331;22;20053;-81
2022/11/08 08:34:00;;;;;;;3.33;2.00;;;;;;;10.37;86.75;100430.53;6270632;22;20031;-81
2022/11/08 08:36:26;;;;;;;2.28;1.98;;;;;;;10.47;85.98;100427.25;6271851;22;20004;-81
2022/11/08 08:38:51;;;;;;;4.30;2.30;;;;;;;10.59;84.96;100431.00;6270682;22;20329;-82
2022/11/08 08:41:16;;;;;;;3.50;2.10;;;;;;;10.74;83.87;100437.22;6271826;22;20004;-82
2022/11/08 08:43:42;;;;;;;3.38;2.10;;;;;;;10.86;83.50;100439.19;6271608;22;20006;-82
2022/11/08 08:46:07;;;;;;;4.53;2.70;;;;;;;10.98;83.07;100435.81;6271688;22;20390;-82
2022/11/08 08:48:34;;;;;;;5.20;2.33;;;;;;;11.08;83.63;100429.97;6272890;22;20007;-81
2022/11/08 08:50:59;;;;;;;4.47;2.38;;;;;;;11.18;81.72;100425.78;6270309;22;20086;-81
2022/11/08 08:53:25;;;;;;;2.75;2.20;;;;;;;11.26;81.67;100434.16;6269055;22;20035;-81
2022/11/08 08:55:51;;;;;;;4.03;2.50;;;;;;;11.33;81.37;100421.31;6271786;22;20002;-80
2022/11/08 08:58:17;;;;;;;3.33;2.35;;;;;;;11.35;80.63;100409.63;6271912;22;20235;-80
2022/11/08 09:00:43;;;;;;;3.78;2.20;;;;;;;11.47;80.51;100413.34;6272245;22;20031;-81
2022/11/08 09:03:09;;;;;;;4.97;2.40;;;;;;;11.54;80.43;100422.69;6268956;22;20047;-80
2022/11/08 09:05:35;;;;;;;3.00;2.35;;;;;;;11.62;79.55;100417.75;6271319;22;20007;-82
2022/11/08 09:08:01;;;;;;;4.40;2.33;;;;;;;11.67;79.86;100407.66;6271456;22;20048;-84
2022/11/08 09:10:26;;;;;;;4.18;2.50;;;;;;;11.74;78.90;100400.09;6274251;22;20003;-89
2022/11/08 09:12:52;;;;;;;3.28;2.10;;;;;;;11.84;79.50;100392.44;6274393;22;19999;-84
2022/11/08 09:15:18;;;;;;;3.05;2.42;;;;;;;11.93;78.61;100387.38;6272799;22;20030;-84
2022/11/08 09:17:43;;;;;;;4.82;2.30;;;;;;;12.10;77.16;100401.44;6273390;22;20086;-85
2022/11/08 09:20:10;;;;;;;2.80;2.20;;;;;;;12.18;78.71;100417.81;6273284;22;20061;-85
2022/11/08 09:22:36;;;;;;;2.92;2.03;;;;;;;12.31;76.99;100417.88;6271775;22;20090;-86
2022/11/08 09:25:02;;;;;;;5.18;2.22;;;;;;;12.32;76.64;100411.59;6273538;22;20347;-86
2022/11/08 09:27:29;;;;;;;3.15;1.90;;;;;;;12.28;76.65;100400.25;6270423;22;20426;-91
2022/11/08 09:29:54;;;;;;;2.97;2.10;;;;;;;12.30;77.13;100398.34;6272377;22;20000;-89
2022/11/08 09:32:20;;;;;;;3.60;2.17;;;;;;;12.37;76.57;100396.13;6275095;22;20010;-92
2022/11/08 09:34:45;;;;;;;3.92;2.15;;;;;;;12.39;75.61;100399.56;6277645;22;20035;-96
2022/11/08 09:37:11;;;;;;;3.70;1.95;;;;;;;12.31;75.57;100400.06;6276066;22;20022;-95
2022/11/08 09:39:36;;;;;;;3.28;2.13;;;;;;;12.19;77.21;100396.38;6277197;22;20015;-95
2022/11/08 09:42:29;;;;;;;3.50;2.15;;;;;;;12.16;78.58;100393.03;6277330;22;20019;-95
2022/11/08 09:44:57;;;;;;;4.23;2.10;;;;;;;12.17;76.81;100389.44;6275230;22;20003;-93
2022/11/08 09:47:27;;;;;;;4.25;2.80;;;;;;;12.22;76.05;100389.97;6277347;22;20012;-96
2022/11/08 09:49:58;;;;;;;3.72;2.20;;;;;;;12.36;76.06;100389.06;6278611;22;20254;-90
2022/11/08 09:52:26;;;;;;;4.45;2.00;;;;;;;12.50;75.61;100391.72;6273818;22;20007;-92
2022/11/08 09:55:03;;;;;;;3.88;2.28;;;;;;;12.66;75.50;100403.06;6278969;22;20023;-96
2022/11/08 09:57:49;;;;;;;3.33;2.00;;;;;;;12.96;74.84;100412.66;6281934;22;20039;-93
2022/11/08 10:00:15;;;;;;;7.43;3.05;;;;;;;12.90;72.76;100389.03;6275939;22;20410;-93
2022/11/08 10:02:41;;;;;;;3.78;2.30;;;;;;;12.96;73.59;100397.50;6279261;22;20015;-95
2022/11/08 10:05:14;;;;;;;4.25;2.42;;;;;;;12.96;73.00;100405.50;6282461;22;20007;-92
2022/11/08 10:07:52;;;;;;;4.13;2.25;;;;;;;13.13;73.40;100419.53;6278997;22;20014;-89
2022/11/08 10:10:38;;;;;;;3.95;2.40;;;;;;;13.20;73.03;100412.78;6274238;22;19999;-82
2022/11/08 10:13:25;;;;;;;3.35;2.10;;;;;;;13.17;71.58;100429.06;6273426;22;20007;-85
2022/11/08 10:16:00;;;;;;;4.03;2.25;;;;;;;13.25;72.43;100408.03;6272802;22;20003;-84
2022/11/08 10:19:04;;;;;;;4.75;2.60;;;;;;;13.35;72.82;100419.81;6273456;22;20007;-86
2022/11/08 10:21:57;;;;;;;3.00;2.00;;;;;;;13.47;71.91;100398.53;6269923;22;20069;-85
2022/11/08 10:24:22;;;;;;;3.33;2.20;;;;;;;13.69;71.03;100412.94;6274914;22;20010;-85
2022/11/08 10:26:50;;;;;;;4.80;2.23;;;;;;;13.82;69.14;100422.78;6272379;22;20001;-87
2022/11/08 10:29:21;;;;;;;4.40;2.22;;;;;;;13.84;70.14;100411.00;6274274;22;20235;-86
2022/11/08 10:31:50;;;;;;;3.80;2.65;;;;;;;13.90;69.11;100415.91;6273102;22;20439;-86
2022/11/08 10:34:33;;;;;;;5.30;2.35;;;;;;;14.00;70.11;100416.09;6276021;22;20428;-86
2022/11/08 10:37:03;;;;;;;4.07;2.47;;;;;;;14.09;68.03;100412.78;6278362;22;20011;-90
2022/11/08 10:39:36;;;;;;;3.53;2.00;;;;;;;14.10;68.43;100411.81;6278835;22;20011;-96
2022/11/08 10:42:09;;;;;;;3.70;2.07;;;;;;;14.16;68.39;100426.56;6282122;22;20065;-90
2022/11/08 10:44:35;;;;;;;3.70;2.07;;;;;;;14.14;67.09;100428.50;6292560;22;20000;-92
2022/11/08 10:47:12;;;;;;;8.00;3.70;;;;;;;14.05;69.42;100426.50;6275175;22;20003;-90
2022/11/08 10:49:39;;;;;;;3.80;2.20;;;;;;;14.02;68.45;100434.75;6276192;22;20108;-89
2022/11/08 10:52:10;;;;;;;4.00;2.40;;;;;;;13.96;68.71;100430.66;6275755;22;20053;-92
2022/11/08 10:54:43;;;;;;;4.03;2.00;;;;;;;14.03;69.27;100421.25;6276267;22;20030;-88
2022/11/08 10:57:11;;;;;;;3.90;2.08;;;;;;;14.18;68.33;100432.66;6277834;22;20008;-89
2022/11/08 10:59:36;;;;;;;4.40;1.90;;;;;;;14.13;67.32;100416.94;6278557;22;20080;-94
2022/11/08 11:02:13;;;;;;;4.45;2.40;;;;;;;14.10;66.87;100417.16;6274391;22;20099;-89
2022/11/08 11:04:38;;;;;;;2.35;1.92;;;;;;;14.13;66.91;100422.31;6276490;22;20012;-86
2022/11/08 11:07:33;;;;;;;2.95;2.00;;;;;;;14.11;68.58;100418.88;6277318;22;20389;-96
2022/11/08 11:10:20;;;;;;;5.47;2.10;;;;;;;14.07;68.49;100421.88;6274279;22;20079;-85
2022/11/08 11:13:03;;;;;;;3.05;1.80;;;;;;;13.99;68.40;100413.53;6275551;22;20003;-85
2022/11/08 11:15:46;;;;;;;2.33;2.10;;;;;;;14.03;68.71;100409.69;6276054;22;20004;-86
2022/11/08 11:18:23;;;;;;;2.65;2.08;;;;;;;14.04;68.31;100411.38;6281715;22;20083;-88
2022/11/08 11:21:12;;;;;;;5.03;2.47;;;;;;;14.28;68.08;100404.25;6288326;22;20030;-88
2022/11/08 11:23:46;;;;;;;3.03;2.20;;;;;;;14.41;67.40;100397.03;6292310;22;19999;-88
2022/11/08 11:26:28;;;;;;;3.53;2.30;;;;;;;14.54;67.84;100377.41;6292119;22;20033;-85
2022/11/08 11:28:57;;;;;;;3.08;2.10;;;;;;;14.64;66.39;100365.03;6289419;22;20003;-88
2022/11/08 11:31:23;;;;;;;5.82;2.22;;;;;;;14.76;64.16;100377.53;6287154;22;20010;-87
2022/11/08 11:33:48;;;;;;;5.63;2.53;;;;;;;14.89;64.79;100366.72;6279177;22;20000;-86
2022/11/08 11:36:19;;;;;;;3.45;2.10;;;;;;;15.01;65.61;100375.66;6278000;22;20006;-89
2022/11/08 11:39:09;;;;;;;4.70;2.35;;;;;;;15.14;65.33;100363.00;6275958;22;20373;-88
2022/11/08 11:41:38;;;;;;;3.75;2.20;;;;;;;14.93;64.01;100355.66;6277275;22;20026;-87
2022/11/08 11:44:04;;;;;;;2.92;2.00;;;;;;;14.83;64.62;100354.63;6278566;22;20000;-88
2022/11/08 11:46:38;;;;;;;3.43;2.00;;;;;;;14.94;65.33;100352.00;6276565;22;20008;-88